sensor_id;sensor_type;location;lat;lon;timestamp;P1;durP1;ratioP1;P2;durP2;ratioP2
7316;SDS011;3699;51.462;6.696;2022-11-28T00:00:55;8.70;;;6.53;;
7316;SDS011;3699;51.462;6.696;2022-11-28T00:03:22;11.60;;;8.07;;
7316;SDS011;3699;51.462;6.696;2022-11-28T00:05:49;11.33;;;7.37;;
7316;SDS011;3699;51.462;6.696;2022-11-28T00:08:17;12.47;;;7.27;;
7316;SDS011;3699;51.462;6.696;2022-11-28T00:10:44;8.20;;;6.20;;
7316;SDS011;3699;51.462;6.696;2022-11-28T00:13:11;8.10;;;6.37;;
7316;SDS011;3699;51.462;6.696;2022-11-28T00:15:37;9.07;;;6.87;;
7316;SDS011;3699;51.462;6.696;2022-11-28T00:18:06;9.63;;;6.90;;
7316;SDS011;3699;51.462;6.696;2022-11-28T00:20:32;10.90;;;6.70;;
7316;SDS011;3699;51.462;6.696;2022-11-28T00:22:59;11.07;;;7.30;;
7316;SDS011;3699;51.462;6.696;2022-11-28T00:25:26;9.60;;;6.70;;
7316;SDS011;3699;51.462;6.696;2022-11-28T00:27:53;8.03;;;5.93;;
7316;SDS011;3699;51.462;6.696;2022-11-28T00:30:19;8.53;;;6.77;;
7316;SDS011;3699;51.462;6.696;2022-11-28T00:32:46;9.30;;;6.37;;
7316;SDS011;3699;51.462;6.696;2022-11-28T00:35:14;12.57;;;6.37;;
7316;SDS011;3699;51.462;6.696;2022-11-28T00:37:41;11.17;;;6.53;;
7316;SDS011;3699;51.462;6.696;2022-11-28T00:40:08;8.43;;;6.50;;
7316;SDS011;3699;51.462;6.696;2022-11-28T00:42:35;11.50;;;6.93;;
7316;SDS011;3699;51.462;6.696;2022-11-28T00:45:02;9.83;;;6.30;;
7316;SDS011;3699;51.462;6.696;2022-11-28T00:47:29;8.77;;;6.17;;
7316;SDS011;3699;51.462;6.696;2022-11-28T00:49:56;8.20;;;5.80;;
7316;SDS011;3699;51.462;6.696;2022-11-28T00:52:24;11.30;;;6.43;;
7316;SDS011;3699;51.462;6.696;2022-11-28T00:54:50;11.73;;;6.60;;
7316;SDS011;3699;51.462;6.696;2022-11-28T00:57:17;7.87;;;5.90;;
7316;SDS011;3699;51.462;6.696;2022-11-28T00:59:44;9.23;;;6.40;;
7316;SDS011;3699;51.462;6.696;2022-11-28T01:02:11;7.83;;;5.83;;
7316;SDS011;3699;51.462;6.696;2022-11-28T01:04:37;6.80;;;5.73;;
7316;SDS011;3699;51.462;6.696;2022-11-28T01:07:04;8.53;;;6.40;;
7316;SDS011;3699;51.462;6.696;2022-11-28T01:09:32;9.33;;;6.00;;
7316;SDS011;3699;51.462;6.696;2022-11-28T01:11:59;9.03;;;5.93;;
7316;SDS011;3699;51.462;6.696;2022-11-28T01:14:25;9.97;;;5.93;;
7316;SDS011;3699;51.462;6.696;2022-11-28T01:16:54;9.17;;;6.33;;
7316;SDS011;3699;51.462;6.696;2022-11-28T01:19:20;8.53;;;6.57;;
7316;SDS011;3699;51.462;6.696;2022-11-28T01:21:47;6.93;;;5.43;;
7316;SDS011;3699;51.462;6.696;2022-11-28T01:24:15;7.17;;;5.90;;
7316;SDS011;3699;51.462;6.696;2022-11-28T01:26:43;7.07;;;5.27;;
7316;SDS011;3699;51.462;6.696;2022-11-28T01:29:10;8.57;;;5.60;;
7316;SDS011;3699;51.462;6.696;2022-11-28T01:31:37;10.97;;;6.27;;
7316;SDS011;3699;51.462;6.696;2022-11-28T01:34:04;10.13;;;6.13;;
7316;SDS011;3699;51.462;6.696;2022-11-28T01:36:31;8.70;;;6.43;;
7316;SDS011;3699;51.462;6.696;2022-11-28T01:38:57;6.57;;;5.50;;
7316;SDS011;3699;51.462;6.696;2022-11-28T01:41:25;8.97;;;6.17;;
7316;SDS011;3699;51.462;6.696;2022-11-28T01:44:02;9.97;;;6.57;;
7316;SDS011;3699;51.462;6.696;2022-11-28T01:46:33;8.17;;;6.03;;
7316;SDS011;3699;51.462;6.696;2022-11-28T01:49:02;8.17;;;6.57;;
7316;SDS011;3699;51.462;6.696;2022-11-28T01:51:35;8.33;;;6.20;;
7316;SDS011;3699;51.462;6.696;2022-11-28T01:54:03;12.93;;;6.80;;
7316;SDS011;3699;51.462;6.696;2022-11-28T01:56:30;8.63;;;5.87;;
7316;SDS011;3699;51.462;6.696;2022-11-28T01:59:06;7.87;;;5.53;;
7316;SDS011;3699;51.462;6.696;2022-11-28T02:01:35;8.23;;;5.93;;
7316;SDS011;3699;51.462;6.696;2022-11-28T02:04:02;11.07;;;6.63;;
7316;SDS011;3699;51.462;6.696;2022-11-28T02:06:30;9.40;;;6.20;;
7316;SDS011;3699;51.462;6.696;2022-11-28T02:08:57;10.30;;;6.70;;
7316;SDS011;3699;51.462;6.696;2022-11-28T02:11:31;7.77;;;5.70;;
7316;SDS011;3699;51.462;6.696;2022-11-28T02:14:09;10.53;;;6.63;;
7316;SDS011;3699;51.462;6.696;2022-11-28T02:16:53;9.67;;;6.33;;
7316;SDS011;3699;51.462;6.696;2022-11-28T02:19:42;8.70;;;6.13;;
7316;SDS011;3699;51.462;6.696;2022-11-28T02:22:33;13.00;;;6.60;;
7316;SDS011;3699;51.462;6.696;2022-11-28T02:25:09;11.03;;;6.20;;
7316;SDS011;3699;51.462;6.696;2022-11-28T02:27:54;9.57;;;6.57;;
7316;SDS011;3699;51.462;6.696;2022-11-28T02:30:45;10.77;;;7.20;;
7316;SDS011;3699;51.462;6.696;2022-11-28T02:33:24;17.23;;;9.53;;
7316;SDS011;3699;51.462;6.696;2022-11-28T02:35:58;15.60;;;8.47;;
7316;SDS011;3699;51.462;6.696;2022-11-28T02:38:33;14.57;;;9.20;;
7316;SDS011;3699;51.462;6.696;2022-11-28T02:41:09;19.03;;;10.13;;
7316;SDS011;3699;51.462;6.696;2022-11-28T02:43:44;17.20;;;10.93;;
7316;SDS011;3699;51.462;6.696;2022-11-28T02:46:19;20.80;;;11.40;;
7316;SDS011;3699;51.462;6.696;2022-11-28T02:48:53;22.67;;;12.33;;
7316;SDS011;3699;51.462;6.696;2022-11-28T02:51:25;20.87;;;11.40;;
7316;SDS011;3699;51.462;6.696;2022-11-28T02:53:55;22.33;;;12.13;;
7316;SDS011;3699;51.462;6.696;2022-11-28T02:56:23;23.10;;;11.93;;
7316;SDS011;3699;51.462;6.696;2022-11-28T02:58:51;18.13;;;9.40;;
7316;SDS011;3699;51.462;6.696;2022-11-28T03:01:18;15.70;;;9.10;;
7316;SDS011;3699;51.462;6.696;2022-11-28T03:03:53;16.47;;;8.83;;
7316;SDS011;3699;51.462;6.696;2022-11-28T03:06:41;12.33;;;8.13;;
7316;SDS011;3699;51.462;6.696;2022-11-28T03:09:25;14.30;;;8.93;;
7316;SDS011;3699;51.462;6.696;2022-11-28T03:12:07;14.00;;;8.57;;
7316;SDS011;3699;51.462;6.696;2022-11-28T03:14:44;10.47;;;7.50;;
7316;SDS011;3699;51.462;6.696;2022-11-28T03:17:17;12.27;;;8.23;;
7316;SDS011;3699;51.462;6.696;2022-11-28T03:19:55;13.13;;;7.97;;
7316;SDS011;3699;51.462;6.696;2022-11-28T03:22:29;11.23;;;8.40;;
7316;SDS011;3699;51.462;6.696;2022-11-28T03:25:05;11.67;;;8.57;;
7316;SDS011;3699;51.462;6.696;2022-11-28T03:27:36;10.20;;;8.00;;
7316;SDS011;3699;51.462;6.696;2022-11-28T03:30:10;14.60;;;9.33;;
7316;SDS011;3699;51.462;6.696;2022-11-28T03:32:43;12.80;;;8.80;;
7316;SDS011;3699;51.462;6.696;2022-11-28T03:35:17;14.07;;;9.03;;
7316;SDS011;3699;51.462;6.696;2022-11-28T03:37:46;13.20;;;9.33;;
7316;SDS011;3699;51.462;6.696;2022-11-28T03:40:16;14.13;;;9.40;;
7316;SDS011;3699;51.462;6.696;2022-11-28T03:42:48;13.73;;;9.53;;
7316;SDS011;3699;51.462;6.696;2022-11-28T03:45:19;14.90;;;8.83;;
7316;SDS011;3699;51.462;6.696;2022-11-28T03:47:53;15.70;;;9.80;;
7316;SDS011;3699;51.462;6.696;2022-11-28T03:50:24;12.30;;;8.93;;
7316;SDS011;3699;51.462;6.696;2022-11-28T03:52:57;13.03;;;9.27;;
7316;SDS011;3699;51.462;6.696;2022-11-28T03:55:29;15.43;;;9.00;;
7316;SDS011;3699;51.462;6.696;2022-11-28T03:58:04;12.33;;;9.00;;
7316;SDS011;3699;51.462;6.696;2022-11-28T04:00:36;12.90;;;9.30;;
7316;SDS011;3699;51.462;6.696;2022-11-28T04:03:09;13.30;;;9.47;;
7316;SDS011;3699;51.462;6.696;2022-11-28T04:05:44;12.50;;;9.50;;
7316;SDS011;3699;51.462;6.696;2022-11-28T04:08:15;15.17;;;9.53;;
7316;SDS011;3699;51.462;6.696;2022-11-28T04:10:47;14.70;;;9.40;;
7316;SDS011;3699;51.462;6.696;2022-11-28T04:13:20;14.67;;;9.47;;
7316;SDS011;3699;51.462;6.696;2022-11-28T04:15:53;14.07;;;9.23;;
7316;SDS011;3699;51.462;6.696;2022-11-28T04:18:25;11.97;;;8.33;;
7316;SDS011;3699;51.462;6.696;2022-11-28T04:20:58;12.23;;;9.33;;
7316;SDS011;3699;51.462;6.696;2022-11-28T04:23:31;15.23;;;9.83;;
7316;SDS011;3699;51.462;6.696;2022-11-28T04:26:03;15.03;;;9.30;;
7316;SDS011;3699;51.462;6.696;2022-11-28T04:28:36;14.37;;;9.30;;
7316;SDS011;3699;51.462;6.696;2022-11-28T04:31:05;13.00;;;9.43;;
7316;SDS011;3699;51.462;6.696;2022-11-28T04:33:35;12.10;;;9.33;;
7316;SDS011;3699;51.462;6.696;2022-11-28T04:36:06;14.57;;;9.37;;
7316;SDS011;3699;51.462;6.696;2022-11-28T04:38:35;15.80;;;9.93;;
7316;SDS011;3699;51.462;6.696;2022-11-28T04:41:04;14.53;;;9.43;;
7316;SDS011;3699;51.462;6.696;2022-11-28T04:43:36;21.33;;;9.80;;
7316;SDS011;3699;51.462;6.696;2022-11-28T04:46:08;14.53;;;9.23;;
7316;SDS011;3699;51.462;6.696;2022-11-28T04:48:39;14.27;;;9.37;;
7316;SDS011;3699;51.462;6.696;2022-11-28T04:51:11;12.40;;;8.97;;
7316;SDS011;3699;51.462;6.696;2022-11-28T04:53:42;12.73;;;9.13;;
7316;SDS011;3699;51.462;6.696;2022-11-28T04:56:15;12.70;;;8.47;;
7316;SDS011;3699;51.462;6.696;2022-11-28T04:58:46;14.17;;;8.87;;
7316;SDS011;3699;51.462;6.696;2022-11-28T05:01:16;12.00;;;9.47;;
7316;SDS011;3699;51.462;6.696;2022-11-28T05:03:47;15.40;;;10.17;;
7316;SDS011;3699;51.462;6.696;2022-11-28T05:06:22;13.87;;;9.40;;
7316;SDS011;3699;51.462;6.696;2022-11-28T05:08:51;14.80;;;9.10;;
7316;SDS011;3699;51.462;6.696;2022-11-28T05:11:18;14.57;;;10.23;;
7316;SDS011;3699;51.462;6.696;2022-11-28T05:13:45;12.83;;;9.67;;
7316;SDS011;3699;51.462;6.696;2022-11-28T05:16:11;12.10;;;8.70;;
7316;SDS011;3699;51.462;6.696;2022-11-28T05:18:40;15.47;;;9.23;;
7316;SDS011;3699;51.462;6.696;2022-11-28T05:21:06;15.03;;;10.00;;
7316;SDS011;3699;51.462;6.696;2022-11-28T05:23:35;18.13;;;9.90;;
7316;SDS011;3699;51.462;6.696;2022-11-28T05:26:03;17.20;;;9.43;;
7316;SDS011;3699;51.462;6.696;2022-11-28T05:28:31;14.87;;;10.17;;
7316;SDS011;3699;51.462;6.696;2022-11-28T05:30:58;14.63;;;9.77;;
7316;SDS011;3699;51.462;6.696;2022-11-28T05:33:25;15.40;;;9.33;;
7316;SDS011;3699;51.462;6.696;2022-11-28T05:35:53;16.47;;;9.77;;
7316;SDS011;3699;51.462;6.696;2022-11-28T05:38:19;16.00;;;9.50;;
7316;SDS011;3699;51.462;6.696;2022-11-28T05:40:47;14.27;;;9.47;;
7316;SDS011;3699;51.462;6.696;2022-11-28T05:43:14;12.80;;;9.07;;
7316;SDS011;3699;51.462;6.696;2022-11-28T05:45:41;15.17;;;8.53;;
7316;SDS011;3699;51.462;6.696;2022-11-28T05:48:09;12.37;;;9.47;;
7316;SDS011;3699;51.462;6.696;2022-11-28T05:50:37;14.87;;;10.10;;
7316;SDS011;3699;51.462;6.696;2022-11-28T05:53:04;18.87;;;9.67;;
7316;SDS011;3699;51.462;6.696;2022-11-28T05:55:30;14.73;;;10.40;;
7316;SDS011;3699;51.462;6.696;2022-11-28T05:57:59;12.50;;;10.10;;
7316;SDS011;3699;51.462;6.696;2022-11-28T06:00:25;11.87;;;9.47;;
7316;SDS011;3699;51.462;6.696;2022-11-28T06:02:52;14.73;;;9.70;;
7316;SDS011;3699;51.462;6.696;2022-11-28T06:05:19;14.60;;;10.50;;
7316;SDS011;3699;51.462;6.696;2022-11-28T06:07:45;14.47;;;9.93;;
7316;SDS011;3699;51.462;6.696;2022-11-28T06:10:12;18.10;;;10.40;;
7316;SDS011;3699;51.462;6.696;2022-11-28T06:12:39;16.30;;;10.47;;
7316;SDS011;3699;51.462;6.696;2022-11-28T06:15:08;16.83;;;10.57;;
7316;SDS011;3699;51.462;6.696;2022-11-28T06:17:35;18.23;;;11.07;;
7316;SDS011;3699;51.462;6.696;2022-11-28T06:20:02;15.10;;;10.60;;
7316;SDS011;3699;51.462;6.696;2022-11-28T06:22:29;20.83;;;10.57;;
7316;SDS011;3699;51.462;6.696;2022-11-28T06:24:56;15.80;;;11.67;;
7316;SDS011;3699;51.462;6.696;2022-11-28T06:27:23;16.50;;;10.87;;
7316;SDS011;3699;51.462;6.696;2022-11-28T06:29:50;17.53;;;10.93;;
7316;SDS011;3699;51.462;6.696;2022-11-28T06:32:18;15.87;;;10.73;;
7316;SDS011;3699;51.462;6.696;2022-11-28T06:34:45;17.33;;;11.07;;
7316;SDS011;3699;51.462;6.696;2022-11-28T06:37:11;16.17;;;10.77;;
7316;SDS011;3699;51.462;6.696;2022-11-28T06:39:38;14.33;;;10.37;;
7316;SDS011;3699;51.462;6.696;2022-11-28T06:42:05;15.63;;;10.47;;
7316;SDS011;3699;51.462;6.696;2022-11-28T06:44:31;17.10;;;10.90;;
7316;SDS011;3699;51.462;6.696;2022-11-28T06:46:58;15.07;;;10.93;;
7316;SDS011;3699;51.462;6.696;2022-11-28T06:49:26;16.13;;;11.00;;
7316;SDS011;3699;51.462;6.696;2022-11-28T06:51:53;15.23;;;10.23;;
7316;SDS011;3699;51.462;6.696;2022-11-28T06:54:20;18.53;;;11.80;;
7316;SDS011;3699;51.462;6.696;2022-11-28T06:56:46;15.53;;;12.00;;
7316;SDS011;3699;51.462;6.696;2022-11-28T06:59:13;17.03;;;10.87;;
7316;SDS011;3699;51.462;6.696;2022-11-28T07:01:40;17.47;;;10.80;;
7316;SDS011;3699;51.462;6.696;2022-11-28T07:04:07;16.77;;;10.63;;
7316;SDS011;3699;51.462;6.696;2022-11-28T07:06:35;16.53;;;10.00;;
7316;SDS011;3699;51.462;6.696;2022-11-28T07:09:03;15.60;;;10.33;;
7316;SDS011;3699;51.462;6.696;2022-11-28T07:11:30;17.70;;;11.07;;
7316;SDS011;3699;51.462;6.696;2022-11-28T07:13:59;16.60;;;10.17;;
7316;SDS011;3699;51.462;6.696;2022-11-28T07:16:28;17.67;;;11.17;;
7316;SDS011;3699;51.462;6.696;2022-11-28T07:18:56;15.73;;;11.87;;
7316;SDS011;3699;51.462;6.696;2022-11-28T07:21:23;16.77;;;11.37;;
7316;SDS011;3699;51.462;6.696;2022-11-28T07:23:52;18.27;;;11.90;;
7316;SDS011;3699;51.462;6.696;2022-11-28T07:26:19;20.13;;;11.90;;
7316;SDS011;3699;51.462;6.696;2022-11-28T07:28:47;18.70;;;12.27;;
7316;SDS011;3699;51.462;6.696;2022-11-28T07:31:15;16.60;;;11.63;;
7316;SDS011;3699;51.462;6.696;2022-11-28T07:33:44;20.33;;;11.17;;
7316;SDS011;3699;51.462;6.696;2022-11-28T07:36:13;20.23;;;11.07;;
7316;SDS011;3699;51.462;6.696;2022-11-28T07:38:40;17.40;;;9.90;;
7316;SDS011;3699;51.462;6.696;2022-11-28T07:41:09;17.87;;;10.47;;
7316;SDS011;3699;51.462;6.696;2022-11-28T07:43:37;15.00;;;10.33;;
7316;SDS011;3699;51.462;6.696;2022-11-28T07:46:05;19.20;;;10.83;;
7316;SDS011;3699;51.462;6.696;2022-11-28T07:48:33;17.77;;;11.77;;
7316;SDS011;3699;51.462;6.696;2022-11-28T07:51:03;18.47;;;11.20;;
7316;SDS011;3699;51.462;6.696;2022-11-28T07:53:31;20.67;;;11.77;;
7316;SDS011;3699;51.462;6.696;2022-11-28T07:55:59;18.33;;;11.90;;
7316;SDS011;3699;51.462;6.696;2022-11-28T07:58:28;18.20;;;12.70;;
7316;SDS011;3699;51.462;6.696;2022-11-28T08:00:56;17.53;;;11.77;;
7316;SDS011;3699;51.462;6.696;2022-11-28T08:03:22;60.90;;;19.23;;
7316;SDS011;3699;51.462;6.696;2022-11-28T08:05:49;22.13;;;12.73;;
7316;SDS011;3699;51.462;6.696;2022-11-28T08:08:16;14.70;;;11.07;;
7316;SDS011;3699;51.462;6.696;2022-11-28T08:10:43;23.60;;;13.93;;
7316;SDS011;3699;51.462;6.696;2022-11-28T08:13:10;21.53;;;11.10;;
7316;SDS011;3699;51.462;6.696;2022-11-28T08:15:39;16.03;;;11.57;;
7316;SDS011;3699;51.462;6.696;2022-11-28T08:18:06;16.00;;;10.93;;
7316;SDS011;3699;51.462;6.696;2022-11-28T08:20:33;20.47;;;11.93;;
7316;SDS011;3699;51.462;6.696;2022-11-28T08:23:00;15.43;;;10.83;;
7316;SDS011;3699;51.462;6.696;2022-11-28T08:25:27;19.07;;;11.83;;
7316;SDS011;3699;51.462;6.696;2022-11-28T08:27:54;19.93;;;12.20;;
7316;SDS011;3699;51.462;6.696;2022-11-28T08:30:20;20.53;;;12.00;;
7316;SDS011;3699;51.462;6.696;2022-11-28T08:32:49;19.63;;;12.43;;
7316;SDS011;3699;51.462;6.696;2022-11-28T08:35:15;19.37;;;12.83;;
7316;SDS011;3699;51.462;6.696;2022-11-28T08:37:42;18.03;;;11.23;;
7316;SDS011;3699;51.462;6.696;2022-11-28T08:40:09;15.93;;;10.87;;
7316;SDS011;3699;51.462;6.696;2022-11-28T08:42:36;15.70;;;10.80;;
7316;SDS011;3699;51.462;6.696;2022-11-28T08:45:04;13.80;;;10.57;;
7316;SDS011;3699;51.462;6.696;2022-11-28T08:47:32;17.97;;;10.97;;
7316;SDS011;3699;51.462;6.696;2022-11-28T08:50:00;15.83;;;11.03;;
7316;SDS011;3699;51.462;6.696;2022-11-28T08:52:26;17.77;;;11.13;;
7316;SDS011;3699;51.462;6.696;2022-11-28T08:54:53;22.27;;;11.60;;
7316;SDS011;3699;51.462;6.696;2022-11-28T08:57:20;16.00;;;11.00;;
7316;SDS011;3699;51.462;6.696;2022-11-28T08:59:46;19.33;;;11.13;;
7316;SDS011;3699;51.462;6.696;2022-11-28T09:02:13;18.20;;;10.97;;
7316;SDS011;3699;51.462;6.696;2022-11-28T09:04:40;16.57;;;10.80;;
7316;SDS011;3699;51.462;6.696;2022-11-28T09:07:08;15.67;;;11.13;;
7316;SDS011;3699;51.462;6.696;2022-11-28T09:09:35;18.30;;;11.03;;
7316;SDS011;3699;51.462;6.696;2022-11-28T09:12:02;14.50;;;10.43;;
7316;SDS011;3699;51.462;6.696;2022-11-28T09:14:29;16.87;;;11.17;;
7316;SDS011;3699;51.462;6.696;2022-11-28T09:16:55;17.43;;;9.97;;
7316;SDS011;3699;51.462;6.696;2022-11-28T09:19:22;15.97;;;10.93;;
7316;SDS011;3699;51.462;6.696;2022-11-28T09:21:49;17.23;;;12.13;;
7316;SDS011;3699;51.462;6.696;2022-11-28T09:24:17;16.47;;;10.80;;
7316;SDS011;3699;51.462;6.696;2022-11-28T09:26:44;20.63;;;12.40;;
7316;SDS011;3699;51.462;6.696;2022-11-28T09:29:10;16.00;;;10.83;;
7316;SDS011;3699;51.462;6.696;2022-11-28T09:31:37;15.27;;;11.40;;
7316;SDS011;3699;51.462;6.696;2022-11-28T09:34:04;17.37;;;10.80;;
7316;SDS011;3699;51.462;6.696;2022-11-28T09:36:31;16.40;;;10.93;;
7316;SDS011;3699;51.462;6.696;2022-11-28T09:38:58;16.97;;;11.00;;
7316;SDS011;3699;51.462;6.696;2022-11-28T09:41:32;19.03;;;11.30;;
7316;SDS011;3699;51.462;6.696;2022-11-28T09:44:07;19.23;;;11.10;;
7316;SDS011;3699;51.462;6.696;2022-11-28T09:46:39;24.40;;;11.53;;
7316;SDS011;3699;51.462;6.696;2022-11-28T09:49:12;17.83;;;12.50;;
7316;SDS011;3699;51.462;6.696;2022-11-28T09:51:46;15.37;;;11.17;;
7316;SDS011;3699;51.462;6.696;2022-11-28T09:54:18;19.53;;;11.97;;
7316;SDS011;3699;51.462;6.696;2022-11-28T09:56:49;17.13;;;11.57;;
7316;SDS011;3699;51.462;6.696;2022-11-28T09:59:18;19.67;;;10.97;;
7316;SDS011;3699;51.462;6.696;2022-11-28T10:01:49;19.97;;;12.20;;
7316;SDS011;3699;51.462;6.696;2022-11-28T10:04:24;17.57;;;12.50;;
7316;SDS011;3699;51.462;6.696;2022-11-28T10:07:00;18.63;;;12.33;;
7316;SDS011;3699;51.462;6.696;2022-11-28T10:09:34;20.17;;;12.30;;
7316;SDS011;3699;51.462;6.696;2022-11-28T10:12:14;15.77;;;11.30;;
7316;SDS011;3699;51.462;6.696;2022-11-28T10:15:02;20.30;;;13.93;;
7316;SDS011;3699;51.462;6.696;2022-11-28T10:17:48;23.37;;;13.27;;
7316;SDS011;3699;51.462;6.696;2022-11-28T10:20:24;26.03;;;14.40;;
7316;SDS011;3699;51.462;6.696;2022-11-28T10:22:54;21.17;;;12.30;;
7316;SDS011;3699;51.462;6.696;2022-11-28T10:25:23;19.07;;;12.97;;
7316;SDS011;3699;51.462;6.696;2022-11-28T10:27:56;22.90;;;13.30;;
7316;SDS011;3699;51.462;6.696;2022-11-28T10:30:23;19.07;;;12.90;;
7316;SDS011;3699;51.462;6.696;2022-11-28T10:32:56;23.67;;;13.87;;
7316;SDS011;3699;51.462;6.696;2022-11-28T10:35:30;19.90;;;12.80;;
7316;SDS011;3699;51.462;6.696;2022-11-28T10:38:05;20.83;;;13.00;;
7316;SDS011;3699;51.462;6.696;2022-11-28T10:40:37;19.80;;;13.07;;
7316;SDS011;3699;51.462;6.696;2022-11-28T10:43:15;24.93;;;13.37;;
7316;SDS011;3699;51.462;6.696;2022-11-28T10:45:53;26.37;;;15.00;;
7316;SDS011;3699;51.462;6.696;2022-11-28T10:48:29;25.27;;;15.57;;
7316;SDS011;3699;51.462;6.696;2022-11-28T10:51:04;36.50;;;19.43;;
7316;SDS011;3699;51.462;6.696;2022-11-28T10:53:40;29.17;;;17.10;;
7316;SDS011;3699;51.462;6.696;2022-11-28T10:56:16;31.63;;;17.60;;
7316;SDS011;3699;51.462;6.696;2022-11-28T10:58:51;33.67;;;18.90;;
7316;SDS011;3699;51.462;6.696;2022-11-28T11:01:23;29.80;;;18.80;;
7316;SDS011;3699;51.462;6.696;2022-11-28T11:03:54;35.87;;;18.70;;
7316;SDS011;3699;51.462;6.696;2022-11-28T11:06:23;36.33;;;18.90;;
7316;SDS011;3699;51.462;6.696;2022-11-28T11:08:50;41.90;;;20.33;;
7316;SDS011;3699;51.462;6.696;2022-11-28T11:11:20;43.10;;;20.23;;
7316;SDS011;3699;51.462;6.696;2022-11-28T11:13:56;40.30;;;19.73;;
7316;SDS011;3699;51.462;6.696;2022-11-28T11:19:21;36.07;;;17.63;;
7316;SDS011;3699;51.462;6.696;2022-11-28T11:21:56;32.57;;;16.43;;
7316;SDS011;3699;51.462;6.696;2022-11-28T11:24:25;28.67;;;15.67;;
7316;SDS011;3699;51.462;6.696;2022-11-28T11:26:52;26.63;;;15.80;;
7316;SDS011;3699;51.462;6.696;2022-11-28T11:29:29;29.27;;;15.10;;
7316;SDS011;3699;51.462;6.696;2022-11-28T11:31:59;27.17;;;16.30;;
7316;SDS011;3699;51.462;6.696;2022-11-28T11:34:31;27.03;;;16.50;;
7316;SDS011;3699;51.462;6.696;2022-11-28T11:37:15;26.73;;;14.97;;
7316;SDS011;3699;51.462;6.696;2022-11-28T11:39:45;26.50;;;15.80;;
7316;SDS011;3699;51.462;6.696;2022-11-28T11:42:17;28.50;;;15.77;;
7316;SDS011;3699;51.462;6.696;2022-11-28T11:44:47;25.20;;;15.63;;
7316;SDS011;3699;51.462;6.696;2022-11-28T11:47:15;26.57;;;18.30;;
7316;SDS011;3699;51.462;6.696;2022-11-28T11:49:42;23.80;;;15.73;;
7316;SDS011;3699;51.462;6.696;2022-11-28T11:52:17;26.43;;;16.97;;
7316;SDS011;3699;51.462;6.696;2022-11-28T11:54:55;24.77;;;16.57;;
7316;SDS011;3699;51.462;6.696;2022-11-28T11:57:25;49.93;;;32.40;;
7316;SDS011;3699;51.462;6.696;2022-11-28T11:59:55;61.77;;;37.30;;
7316;SDS011;3699;51.462;6.696;2022-11-28T12:02:26;56.77;;;38.93;;
7316;SDS011;3699;51.462;6.696;2022-11-28T12:05:00;40.40;;;27.97;;
7316;SDS011;3699;51.462;6.696;2022-11-28T12:07:31;33.37;;;21.57;;
7316;SDS011;3699;51.462;6.696;2022-11-28T12:10:04;30.97;;;19.43;;
7316;SDS011;3699;51.462;6.696;2022-11-28T12:12:36;41.87;;;31.73;;
7316;SDS011;3699;51.462;6.696;2022-11-28T12:15:10;31.77;;;22.47;;
7316;SDS011;3699;51.462;6.696;2022-11-28T12:17:50;26.93;;;19.20;;
7316;SDS011;3699;51.462;6.696;2022-11-28T12:20:32;44.87;;;35.60;;
7316;SDS011;3699;51.462;6.696;2022-11-28T12:23:12;30.90;;;19.97;;
7316;SDS011;3699;51.462;6.696;2022-11-28T12:25:57;23.93;;;16.90;;
7316;SDS011;3699;51.462;6.696;2022-11-28T12:28:32;30.60;;;23.60;;
7316;SDS011;3699;51.462;6.696;2022-11-28T12:31:15;37.07;;;25.40;;
7316;SDS011;3699;51.462;6.696;2022-11-28T12:33:51;192.77;;;122.87;;
7316;SDS011;3699;51.462;6.696;2022-11-28T12:36:28;30.63;;;19.43;;
7316;SDS011;3699;51.462;6.696;2022-11-28T12:39:10;31.40;;;21.93;;
7316;SDS011;3699;51.462;6.696;2022-11-28T12:44:46;26.57;;;16.47;;
7316;SDS011;3699;51.462;6.696;2022-11-28T12:47:24;30.40;;;20.70;;
7316;SDS011;3699;51.462;6.696;2022-11-28T12:50:02;33.43;;;25.07;;
7316;SDS011;3699;51.462;6.696;2022-11-28T12:52:37;41.73;;;31.20;;
7316;SDS011;3699;51.462;6.696;2022-11-28T12:55:17;33.67;;;24.83;;
7316;SDS011;3699;51.462;6.696;2022-11-28T12:57:50;51.77;;;38.40;;
7316;SDS011;3699;51.462;6.696;2022-11-28T13:00:23;29.13;;;21.17;;
7316;SDS011;3699;51.462;6.696;2022-11-28T13:02:57;29.47;;;19.03;;
7316;SDS011;3699;51.462;6.696;2022-11-28T13:05:38;30.10;;;21.93;;
7316;SDS011;3699;51.462;6.696;2022-11-28T13:08:15;24.90;;;18.00;;
7316;SDS011;3699;51.462;6.696;2022-11-28T13:10:57;33.50;;;23.70;;
7316;SDS011;3699;51.462;6.696;2022-11-28T13:13:36;40.10;;;31.00;;
7316;SDS011;3699;51.462;6.696;2022-11-28T13:16:09;63.87;;;44.43;;
7316;SDS011;3699;51.462;6.696;2022-11-28T13:18:46;54.27;;;43.07;;
7316;SDS011;3699;51.462;6.696;2022-11-28T13:21:22;64.40;;;50.40;;
7316;SDS011;3699;51.462;6.696;2022-11-28T13:23:58;32.47;;;20.93;;
7316;SDS011;3699;51.462;6.696;2022-11-28T13:26:32;29.47;;;18.30;;
7316;SDS011;3699;51.462;6.696;2022-11-28T13:29:06;31.67;;;18.47;;
7316;SDS011;3699;51.462;6.696;2022-11-28T13:31:45;28.93;;;18.23;;
7316;SDS011;3699;51.462;6.696;2022-11-28T13:34:19;38.63;;;24.80;;
7316;SDS011;3699;51.462;6.696;2022-11-28T13:36:49;38.10;;;25.13;;
7316;SDS011;3699;51.462;6.696;2022-11-28T13:39:22;44.17;;;34.87;;
7316;SDS011;3699;51.462;6.696;2022-11-28T13:41:58;36.20;;;26.37;;
7316;SDS011;3699;51.462;6.696;2022-11-28T13:44:40;39.97;;;29.17;;
7316;SDS011;3699;51.462;6.696;2022-11-28T13:47:12;30.17;;;22.37;;
7316;SDS011;3699;51.462;6.696;2022-11-28T13:49:41;65.27;;;48.93;;
7316;SDS011;3699;51.462;6.696;2022-11-28T13:54:57;46.13;;;36.20;;
7316;SDS011;3699;51.462;6.696;2022-11-28T13:57:27;47.00;;;35.87;;
7316;SDS011;3699;51.462;6.696;2022-11-28T13:59:57;49.23;;;37.13;;
7316;SDS011;3699;51.462;6.696;2022-11-28T14:02:33;58.40;;;40.73;;
7316;SDS011;3699;51.462;6.696;2022-11-28T14:05:15;50.87;;;33.50;;
7316;SDS011;3699;51.462;6.696;2022-11-28T14:07:51;37.23;;;28.27;;
7316;SDS011;3699;51.462;6.696;2022-11-28T14:10:25;27.43;;;21.30;;
7316;SDS011;3699;51.462;6.696;2022-11-28T14:13:17;38.13;;;31.67;;
7316;SDS011;3699;51.462;6.696;2022-11-28T14:16:01;35.40;;;26.60;;
7316;SDS011;3699;51.462;6.696;2022-11-28T14:18:38;38.37;;;28.77;;
7316;SDS011;3699;51.462;6.696;2022-11-28T14:21:21;44.67;;;32.20;;
7316;SDS011;3699;51.462;6.696;2022-11-28T14:23:57;52.63;;;37.90;;
7316;SDS011;3699;51.462;6.696;2022-11-28T14:26:29;69.50;;;55.20;;
7316;SDS011;3699;51.462;6.696;2022-11-28T14:28:58;37.43;;;27.73;;
7316;SDS011;3699;51.462;6.696;2022-11-28T14:31:27;26.00;;;19.33;;
7316;SDS011;3699;51.462;6.696;2022-11-28T14:33:57;21.37;;;16.67;;
7316;SDS011;3699;51.462;6.696;2022-11-28T14:36:26;20.47;;;15.03;;
7316;SDS011;3699;51.462;6.696;2022-11-28T14:38:59;21.70;;;15.33;;
7316;SDS011;3699;51.462;6.696;2022-11-28T14:41:29;22.13;;;16.33;;
7316;SDS011;3699;51.462;6.696;2022-11-28T14:44:05;26.27;;;16.80;;
7316;SDS011;3699;51.462;6.696;2022-11-28T14:47:15;31.20;;;18.93;;
7316;SDS011;3699;51.462;6.696;2022-11-28T14:49:43;27.30;;;18.17;;
7316;SDS011;3699;51.462;6.696;2022-11-28T14:54:54;106.33;;;79.33;;
7316;SDS011;3699;51.462;6.696;2022-11-28T14:57:23;77.93;;;54.23;;
7316;SDS011;3699;51.462;6.696;2022-11-28T14:59:54;117.43;;;85.57;;
7316;SDS011;3699;51.462;6.696;2022-11-28T15:02:25;165.03;;;119.93;;
7316;SDS011;3699;51.462;6.696;2022-11-28T15:05:04;104.63;;;70.83;;
7316;SDS011;3699;51.462;6.696;2022-11-28T15:07:43;196.60;;;128.73;;
7316;SDS011;3699;51.462;6.696;2022-11-28T15:10:22;93.30;;;65.37;;
7316;SDS011;3699;51.462;6.696;2022-11-28T15:12:58;104.20;;;80.87;;
7316;SDS011;3699;51.462;6.696;2022-11-28T15:15:32;72.67;;;53.10;;
7316;SDS011;3699;51.462;6.696;2022-11-28T15:17:59;65.27;;;51.60;;
7316;SDS011;3699;51.462;6.696;2022-11-28T15:20:30;42.07;;;31.13;;
7316;SDS011;3699;51.462;6.696;2022-11-28T15:23:02;62.63;;;43.10;;
7316;SDS011;3699;51.462;6.696;2022-11-28T15:25:30;73.10;;;48.27;;
7316;SDS011;3699;51.462;6.696;2022-11-28T15:28:11;114.60;;;77.57;;